Time;durP1;ratioP1;P1;durP2;ratioP2;P2;SDS_P1;SDS_P2;PMS_P1;PMS_P2;Temp;Humidity;BMP_temperature;BMP_pressure;BME280_temperature;BME280_humidity;BME280_pressure;Samples;Min_cycle;Max_cycle;Signal;HPM_P1;HPM_P2
2021/03/16 00:01:20;;;;;;;0.55;0.20;;;12.20;22.50;;;;;;4992752;28;20129;-63
2021/03/16 00:03:46;;;;;;;0.35;0.00;;;12.20;22.10;;;;;;4984689;28;20038;-63
2021/03/16 00:06:15;;;;;;;1.08;0.10;;;12.20;21.80;;;;;;4995946;28;20061;-62
2021/03/16 00:08:41;;;;;;;0.10;0.10;;;12.30;22.10;;;;;;4994737;28;20036;-63
2021/03/16 00:11:07;;;;;;;0.20;0.08;;;12.20;21.50;;;;;;5019569;28;20731;-62
2021/03/16 00:13:32;;;;;;;0.30;0.13;;;12.10;21.90;;;;;;5017690;28;20042;-63
2021/03/16 00:15:58;;;;;;;0.60;0.15;;;12.20;22.00;;;;;;5011969;28;20113;-63
2021/03/16 00:18:23;;;;;;;0.10;0.10;;;12.20;21.60;;;;;;5012471;28;20045;-63
2021/03/16 00:20:51;;;;;;;0.10;0.10;;;12.20;21.50;;;;;;5009213;28;20120;-63
2021/03/16 00:23:17;;;;;;;0.70;0.20;;;12.20;21.50;;;;;;5016441;28;20040;-63
2021/03/16 00:25:43;;;;;;;0.60;0.10;;;12.10;21.30;;;;;;5012335;28;20026;-63
2021/03/16 00:28:08;;;;;;;0.00;0.00;;;12.10;21.90;;;;;;4994434;28;20585;-62
2021/03/16 00:30:34;;;;;;;0.20;0.00;;;12.10;21.90;;;;;;4993301;28;20057;-63
2021/03/16 00:33:00;;;;;;;0.10;0.00;;;12.00;22.00;;;;;;4997072;28;20050;-64
2021/03/16 00:35:25;;;;;;;0.00;0.00;;;12.10;22.20;;;;;;4994100;28;20387;-63
2021/03/16 00:37:51;;;;;;;0.37;0.10;;;12.10;22.00;;;;;;5013921;28;20038;-63
2021/03/16 00:40:17;;;;;;;0.13;0.10;;;11.90;21.40;;;;;;4994731;28;20037;-63
2021/03/16 00:42:43;;;;;;;0.20;0.00;;;12.00;22.10;;;;;;4994937;28;20057;-62
2021/03/16 00:45:10;;;;;;;1.05;0.32;;;12.00;21.90;;;;;;4998863;28;20514;-62
2021/03/16 00:47:36;;;;;;;0.20;0.00;;;12.00;22.10;;;;;;4993079;28;20034;-59
2021/03/16 00:50:08;;;;;;;0.70;0.10;;;11.90;22.00;;;;;;4991360;28;20042;-63
2021/03/16 00:52:33;;;;;;;0.28;0.10;;;12.00;22.00;;;;;;4997192;28;20037;-64
2021/03/16 00:54:59;;;;;;;0.05;0.05;;;11.90;22.20;;;;;;4999852;28;20034;-63
2021/03/16 00:57:25;;;;;;;0.52;0.10;;;11.80;22.00;;;;;;4979641;28;20109;-64
2021/03/16 00:59:50;;;;;;;0.00;0.00;;;11.90;22.30;;;;;;4993707;28;20042;-64
2021/03/16 01:02:18;;;;;;;0.30;0.10;;;11.80;21.70;;;;;;5028764;28;20026;-63
2021/03/16 01:04:45;;;;;;;1.23;0.17;;;11.70;21.70;;;;;;4999292;28;20499;-64
2021/03/16 01:07:10;;;;;;;0.40;0.00;;;11.70;22.10;;;;;;4984562;28;20040;-64
2021/03/16 01:09:36;;;;;;;2.27;0.10;;;11.60;21.50;;;;;;5001392;28;20054;-63
2021/03/16 01:12:02;;;;;;;0.20;0.10;;;11.60;21.50;;;;;;4995427;28;20049;-62
2021/03/16 01:14:28;;;;;;;0.73;0.10;;;11.60;21.70;;;;;;4996228;28;20403;-64
2021/03/16 01:16:53;;;;;;;1.70;0.10;;;11.60;21.90;;;;;;4993172;28;20046;-63
2021/03/16 01:19:19;;;;;;;0.20;0.10;;;11.60;21.80;;;;;;4990158;28;20038;-63
2021/03/16 01:21:45;;;;;;;0.97;0.33;;;11.70;22.00;;;;;;4989383;28;20045;-63
2021/03/16 01:24:10;;;;;;;0.93;0.20;;;11.70;22.00;;;;;;4999921;28;20041;-63
2021/03/16 01:26:36;;;;;;;0.90;0.40;;;11.60;22.40;;;;;;4994625;28;20045;-62
2021/03/16 01:29:04;;;;;;;0.10;0.10;;;11.60;22.50;;;;;;4992692;28;20046;-63
2021/03/16 01:31:29;;;;;;;0.10;0.10;;;11.60;21.90;;;;;;4993134;28;20770;-63
2021/03/16 01:33:55;;;;;;;1.63;0.10;;;11.60;23.00;;;;;;4995872;28;22706;-64
2021/03/16 01:36:20;;;;;;;0.77;0.20;;;11.50;22.00;;;;;;4981628;28;20120;-63
2021/03/16 01:38:46;;;;;;;0.25;0.03;;;11.50;22.70;;;;;;4989992;28;20603;-63
2021/03/16 01:41:11;;;;;;;0.40;0.17;;;11.50;22.00;;;;;;4986896;28;20092;-62
2021/03/16 01:43:37;;;;;;;0.20;0.10;;;11.50;22.40;;;;;;4983752;28;20039;-64
2021/03/16 01:46:06;;;;;;;0.13;0.10;;;11.50;21.70;;;;;;4993232;28;20070;-63
2021/03/16 01:48:33;;;;;;;1.13;0.17;;;11.50;21.60;;;;;;4989593;28;20481;-63
2021/03/16 01:51:06;;;;;;;0.83;0.20;;;11.50;21.90;;;;;;4996244;28;20511;-63
2021/03/16 01:53:31;;;;;;;0.17;0.10;;;11.60;22.20;;;;;;4990053;28;20042;-63
2021/03/16 01:55:58;;;;;;;0.63;0.10;;;11.60;22.10;;;;;;4998301;28;20043;-63
2021/03/16 01:58:23;;;;;;;0.00;0.00;;;11.40;21.70;;;;;;4990535;28;20058;-63
2021/03/16 02:00:49;;;;;;;1.40;0.20;;;11.40;21.60;;;;;;4996521;28;20377;-62
2021/03/16 02:03:18;;;;;;;0.93;0.00;;;11.30;22.10;;;;;;4986458;28;20839;-63
2021/03/16 02:05:44;;;;;;;0.20;0.10;;;11.20;21.90;;;;;;4997529;28;20049;-63
2021/03/16 02:08:34;;;;;;;0.10;0.10;;;11.30;21.90;;;;;;4994183;28;20038;-63
2021/03/16 02:11:20;;;;;;;0.30;0.00;;;11.30;21.70;;;;;;5006211;28;20045;-64
2021/03/16 02:14:23;;;;;;;1.48;0.10;;;11.20;21.70;;;;;;4965780;28;20070;-63
2021/03/16 02:17:07;;;;;;;0.00;0.00;;;11.30;22.10;;;;;;4970163;28;20034;-63
2021/03/16 02:19:45;;;;;;;0.13;0.00;;;11.20;22.00;;;;;;4982458;28;20224;-62
2021/03/16 02:22:12;;;;;;;0.07;0.07;;;11.10;21.70;;;;;;4978261;28;20124;-62
2021/03/16 02:24:54;;;;;;;0.43;0.10;;;11.20;22.00;;;;;;5006202;28;20042;-62
2021/03/16 02:27:24;;;;;;;1.33;0.10;;;11.20;22.30;;;;;;5015359;28;20498;-63
2021/03/16 02:29:57;;;;;;;0.17;0.00;;;11.30;22.30;;;;;;4993830;28;20053;-65
2021/03/16 02:32:25;;;;;;;0.20;0.00;;;11.20;22.20;;;;;;4990284;28;20034;-64
2021/03/16 02:35:00;;;;;;;1.03;0.10;;;11.10;22.10;;;;;;4990275;28;20038;-64
2021/03/16 02:37:27;;;;;;;0.20;0.08;;;11.10;22.00;;;;;;4992202;28;20065;-63
2021/03/16 02:39:55;;;;;;;0.30;0.00;;;11.30;22.90;;;;;;4998767;28;20037;-63
2021/03/16 02:42:22;;;;;;;0.47;0.20;;;11.20;22.70;;;;;;4994550;28;20572;-64
2021/03/16 02:44:49;;;;;;;0.40;0.10;;;11.20;22.60;;;;;;4990561;28;20062;-63
2021/03/16 02:47:18;;;;;;;1.17;0.07;;;11.20;22.50;;;;;;4997285;28;20049;-63
2021/03/16 02:49:45;;;;;;;0.17;0.07;;;11.10;22.30;;;;;;4999711;28;20141;-62
2021/03/16 02:52:12;;;;;;;2.30;0.10;;;11.10;22.60;;;;;;4992877;28;20447;-62
2021/03/16 02:54:39;;;;;;;0.20;0.00;;;11.10;22.40;;;;;;4991931;28;20046;-63
2021/03/16 02:57:06;;;;;;;0.47;0.20;;;11.10;22.90;;;;;;4993213;28;20065;-63
2021/03/16 02:59:33;;;;;;;0.10;0.00;;;11.10;23.10;;;;;;5001720;28;20045;-63
2021/03/16 03:02:01;;;;;;;0.13;0.00;;;11.10;23.00;;;;;;5008211;28;20091;-63
2021/03/16 03:04:28;;;;;;;0.23;0.00;;;11.10;22.70;;;;;;5017869;28;20049;-62
2021/03/16 03:06:55;;;;;;;0.10;0.00;;;11.10;23.40;;;;;;4992387;28;20042;-64
2021/03/16 03:09:21;;;;;;;0.20;0.00;;;11.00;22.90;;;;;;4992903;28;20062;-63
2021/03/16 03:11:47;;;;;;;0.60;0.10;;;11.10;23.60;;;;;;4989740;28;20085;-63
2021/03/16 03:14:14;;;;;;;0.33;0.00;;;11.10;23.40;;;;;;4979684;28;20038;-63
2021/03/16 03:16:40;;;;;;;0.20;0.00;;;11.00;23.10;;;;;;4989447;28;20474;-64
2021/03/16 03:19:06;;;;;;;0.10;0.00;;;11.10;23.30;;;;;;4995942;28;20034;-58
2021/03/16 03:21:48;;;;;;;1.10;0.10;;;11.00;23.00;;;;;;4996196;28;20108;-63
2021/03/16 03:24:22;;;;;;;0.43;0.10;;;11.00;23.20;;;;;;4961160;28;20044;-62
2021/03/16 03:26:59;;;;;;;2.00;0.10;;;11.00;23.50;;;;;;4999438;28;20034;-62
2021/03/16 03:29:26;;;;;;;0.20;0.10;;;11.00;23.90;;;;;;5001267;28;20377;-63
2021/03/16 03:31:54;;;;;;;2.17;0.20;;;10.80;23.30;;;;;;4991010;28;20495;-63
2021/03/16 03:34:22;;;;;;;0.00;0.00;;;10.80;23.70;;;;;;4998050;28;20038;-62
2021/03/16 03:36:52;;;;;;;0.67;0.00;;;11.00;24.30;;;;;;4996597;28;20057;-63
2021/03/16 03:39:20;;;;;;;0.10;0.10;;;10.90;23.80;;;;;;4985677;28;20058;-62
2021/03/16 03:41:47;;;;;;;0.63;0.00;;;10.90;23.50;;;;;;5002062;28;20136;-62
2021/03/16 03:44:13;;;;;;;0.53;0.10;;;10.80;23.80;;;;;;5011830;28;20042;-62
2021/03/16 03:46:40;;;;;;;0.27;0.10;;;10.90;24.20;;;;;;5000244;28;20045;-61
2021/03/16 03:49:07;;;;;;;0.20;0.00;;;10.80;23.70;;;;;;4992745;28;20195;-62
2021/03/16 03:51:35;;;;;;;0.50;0.00;;;10.90;24.30;;;;;;4998716;28;20050;-62
2021/03/16 03:54:02;;;;;;;0.10;0.03;;;11.00;24.40;;;;;;4994992;28;20047;-62
2021/03/16 03:56:29;;;;;;;0.30;0.00;;;10.90;24.30;;;;;;4995723;28;20038;-63
2021/03/16 03:58:57;;;;;;;0.00;0.00;;;10.90;24.30;;;;;;4992314;28;20136;-63
2021/03/16 04:01:23;;;;;;;1.27;0.20;;;10.80;24.30;;;;;;5024929;28;20085;-62
2021/03/16 04:03:49;;;;;;;0.10;0.00;;;10.80;24.20;;;;;;4998658;28;20045;-63
2021/03/16 04:06:15;;;;;;;0.20;0.00;;;10.80;24.10;;;;;;4996455;28;20042;-62
2021/03/16 04:08:41;;;;;;;0.10;0.10;;;10.70;24.30;;;;;;4992072;28;20041;-63
2021/03/16 04:11:07;;;;;;;0.00;0.00;;;10.70;24.60;;;;;;5003472;28;20046;-63
2021/03/16 04:13:33;;;;;;;0.13;0.00;;;10.70;24.30;;;;;;4995899;28;20072;-63
2021/03/16 04:16:01;;;;;;;0.00;0.00;;;10.80;24.30;;;;;;4995926;28;20116;-63
2021/03/16 04:18:27;;;;;;;0.40;0.00;;;10.70;23.50;;;;;;5002357;28;20049;-63
2021/03/16 04:20:53;;;;;;;0.20;0.10;;;10.70;23.90;;;;;;5000445;28;20610;-63
2021/03/16 04:23:19;;;;;;;0.23;0.00;;;10.70;24.10;;;;;;4997457;28;20030;-63
2021/03/16 04:25:44;;;;;;;0.17;0.10;;;10.80;24.00;;;;;;4997431;28;20038;-62
2021/03/16 04:28:10;;;;;;;1.37;0.10;;;10.80;23.50;;;;;;4998202;28;20066;-62
2021/03/16 04:30:36;;;;;;;0.00;0.00;;;10.80;22.70;;;;;;4993669;28;20058;-63
2021/03/16 04:33:02;;;;;;;1.97;0.03;;;10.80;23.40;;;;;;4999983;28;20376;-63
2021/03/16 04:35:28;;;;;;;0.00;0.00;;;10.80;23.40;;;;;;4994477;28;20642;-63
2021/03/16 04:37:53;;;;;;;1.13;0.03;;;10.80;23.00;;;;;;4995546;28;20133;-64
2021/03/16 04:40:20;;;;;;;0.00;0.00;;;10.80;22.60;;;;;;5021625;28;20042;-63
2021/03/16 04:42:47;;;;;;;0.90;0.20;;;10.80;23.10;;;;;;4998830;28;20074;-63
2021/03/16 04:45:13;;;;;;;0.57;0.00;;;10.80;23.50;;;;;;4999388;28;20070;-62
2021/03/16 04:47:39;;;;;;;0.50;0.00;;;10.80;22.70;;;;;;4997634;28;20057;-63
2021/03/16 04:50:05;;;;;;;0.60;0.10;;;10.80;22.90;;;;;;4995683;28;20383;-63
2021/03/16 04:52:31;;;;;;;0.00;0.00;;;10.70;23.60;;;;;;4996947;28;20037;-63
2021/03/16 04:54:56;;;;;;;0.20;0.10;;;10.70;23.30;;;;;;4986133;28;20096;-63
2021/03/16 04:57:22;;;;;;;0.60;0.10;;;10.70;23.10;;;;;;4994055;28;20046;-62
2021/03/16 04:59:47;;;;;;;0.10;0.00;;;10.70;22.70;;;;;;4991734;28;20044;-63
2021/03/16 05:02:14;;;;;;;0.03;0.00;;;10.70;23.00;;;;;;4990205;28;20096;-62
2021/03/16 05:04:40;;;;;;;0.20;0.10;;;10.60;22.90;;;;;;5030191;28;20483;-62
2021/03/16 05:07:05;;;;;;;0.23;0.00;;;10.60;22.60;;;;;;4991181;28;20487;-63
2021/03/16 05:09:31;;;;;;;0.00;0.00;;;10.50;22.50;;;;;;4997406;28;20094;-63
2021/03/16 05:11:57;;;;;;;0.43;0.00;;;10.60;22.60;;;;;;4989082;28;20061;-63
2021/03/16 05:14:23;;;;;;;1.03;0.13;;;10.50;22.20;;;;;;4992203;28;20147;-63
2021/03/16 05:16:48;;;;;;;0.47;0.00;;;10.60;23.20;;;;;;4991576;28;20037;-63
2021/03/16 05:19:14;;;;;;;0.80;0.03;;;10.60;23.30;;;;;;4997196;28;20038;-62
2021/03/16 05:21:41;;;;;;;1.17;0.10;;;10.60;22.90;;;;;;4993377;28;20700;-63
2021/03/16 05:24:07;;;;;;;0.50;0.10;;;10.60;23.40;;;;;;4993761;28;20038;-63
2021/03/16 05:26:33;;;;;;;0.80;0.00;;;10.60;22.80;;;;;;4990096;28;20696;-62
2021/03/16 05:28:58;;;;;;;0.67;0.10;;;10.60;23.20;;;;;;4993749;28;20041;-63
2021/03/16 05:31:24;;;;;;;0.73;0.10;;;10.50;23.00;;;;;;4991833;28;20057;-62
2021/03/16 05:33:49;;;;;;;1.13;0.03;;;10.40;22.90;;;;;;4997499;28;20081;-62
2021/03/16 05:36:15;;;;;;;0.87;0.10;;;10.50;23.50;;;;;;4996156;28;20045;-62
2021/03/16 05:38:41;;;;;;;0.37;0.10;;;10.40;23.40;;;;;;4994979;28;20041;-61
2021/03/16 05:41:07;;;;;;;0.50;0.00;;;10.40;22.90;;;;;;4999001;28;20057;-62
2021/03/16 05:43:35;;;;;;;1.97;0.10;;;10.40;23.70;;;;;;4994792;28;20073;-62
2021/03/16 05:46:01;;;;;;;1.27;0.10;;;10.40;23.30;;;;;;4997844;28;20049;-63
2021/03/16 05:48:29;;;;;;;0.40;0.10;;;10.40;22.90;;;;;;4990540;28;20145;-63
2021/03/16 05:50:58;;;;;;;0.37;0.10;;;10.40;23.40;;;;;;4996998;28;20500;-63
2021/03/16 05:53:24;;;;;;;1.83;0.17;;;10.40;22.70;;;;;;4990336;28;20049;-63
2021/03/16 05:55:50;;;;;;;1.90;0.20;;;10.50;23.20;;;;;;4994613;28;20030;-63
2021/03/16 05:58:15;;;;;;;0.43;0.10;;;10.40;22.40;;;;;;4991182;28;20487;-63
2021/03/16 06:00:41;;;;;;;0.40;0.00;;;10.40;22.70;;;;;;4990823;28;20046;-62
2021/03/16 06:03:07;;;;;;;0.40;0.10;;;10.40;22.70;;;;;;5023176;28;20065;-59
2021/03/16 06:05:32;;;;;;;0.73;0.10;;;10.50;22.90;;;;;;4996330;28;20038;-64
2021/03/16 06:07:58;;;;;;;0.90;0.20;;;10.40;21.90;;;;;;4993197;28;20050;-63
2021/03/16 06:10:24;;;;;;;0.97;0.20;;;10.50;22.50;;;;;;4993309;28;20047;-63
2021/03/16 06:12:50;;;;;;;0.30;0.10;;;10.50;22.20;;;;;;4993668;28;20044;-63
2021/03/16 06:15:17;;;;;;;0.60;0.10;;;10.50;21.60;;;;;;4994770;28;20038;-63
2021/03/16 06:17:54;;;;;;;0.10;0.00;;;10.60;21.60;;;;;;4995812;28;20049;-61
2021/03/16 06:20:26;;;;;;;0.83;0.10;;;10.60;22.00;;;;;;4993950;28;20030;-62
2021/03/16 06:23:02;;;;;;;0.40;0.10;;;10.60;22.00;;;;;;4994183;28;20507;-62
2021/03/16 06:25:33;;;;;;;1.40;0.27;;;10.50;20.70;;;;;;4995741;28;20042;-63
2021/03/16 06:28:02;;;;;;;0.03;0.00;;;10.50;20.80;;;;;;4996320;28;20035;-63
2021/03/16 06:30:28;;;;;;;0.73;0.10;;;10.50;20.80;;;;;;4992640;28;20718;-63
2021/03/16 06:32:54;;;;;;;1.93;0.40;;;10.70;21.60;;;;;;4995131;28;20515;-63
2021/03/16 06:35:20;;;;;;;1.27;0.37;;;10.70;21.60;;;;;;4987311;28;20038;-63
2021/03/16 06:38:01;;;;;;;0.57;0.33;;;10.70;21.70;;;;;;4989009;28;20031;-63
2021/03/16 06:40:28;;;;;;;0.73;0.20;;;10.80;20.80;;;;;;4995135;28;22687;-63
2021/03/16 06:43:10;;;;;;;2.80;0.20;;;10.70;21.80;;;;;;4995737;28;20049;-62
2021/03/16 06:45:39;;;;;;;0.77;0.17;;;10.80;22.10;;;;;;4992947;28;20582;-62
2021/03/16 06:48:22;;;;;;;3.97;0.37;;;10.80;21.60;;;;;;5000770;28;20141;-62
2021/03/16 06:50:49;;;;;;;1.00;0.13;;;10.90;21.00;;;;;;4970718;28;20387;-63
2021/03/16 06:53:27;;;;;;;0.93;0.40;;;10.90;21.40;;;;;;4992049;28;20636;-63
2021/03/16 06:55:57;;;;;;;0.33;0.10;;;10.90;20.70;;;;;;5002917;28;20537;-63
2021/03/16 06:58:28;;;;;;;2.07;0.60;;;11.00;21.50;;;;;;4987253;28;20053;-62
2021/03/16 07:01:18;;;;;;;0.57;0.30;;;11.00;21.10;;;;;;4996175;28;20068;-63
2021/03/16 07:03:43;;;;;;;0.20;0.10;;;11.10;21.20;;;;;;4958384;28;20038;-63
2021/03/16 07:06:11;;;;;;;1.53;0.30;;;11.10;21.30;;;;;;4989242;28;20080;-62
2021/03/16 07:08:38;;;;;;;1.30;0.37;;;11.10;21.30;;;;;;5012864;28;20037;-59
2021/03/16 07:11:07;;;;;;;1.70;0.33;;;11.10;20.80;;;;;;4987961;28;20045;-62
2021/03/16 07:13:34;;;;;;;2.23;0.57;;;11.10;19.80;;;;;;4989945;28;20041;-62
2021/03/16 07:16:01;;;;;;;4.60;0.30;;;11.20;19.80;;;;;;4987646;28;20038;-63
2021/03/16 07:18:28;;;;;;;0.87;0.20;;;11.30;19.70;;;;;;4994197;28;20052;-63
2021/03/16 07:20:58;;;;;;;2.17;0.23;;;11.30;19.30;;;;;;4994499;28;20038;-62
2021/03/16 07:23:26;;;;;;;1.80;0.30;;;11.30;19.10;;;;;;4995385;28;20065;-62
2021/03/16 07:25:53;;;;;;;1.13;0.23;;;11.30;19.70;;;;;;4993840;28;20050;-62
2021/03/16 07:28:19;;;;;;;1.07;0.17;;;11.30;19.30;;;;;;4993946;28;20041;-62
2021/03/16 07:30:45;;;;;;;3.40;0.23;;;11.40;19.00;;;;;;4992551;28;20054;-62
2021/03/16 07:33:14;;;;;;;0.83;0.10;;;11.40;19.70;;;;;;5000991;28;20515;-62
2021/03/16 07:35:41;;;;;;;0.87;0.10;;;11.40;19.10;;;;;;5001456;28;20484;-61
2021/03/16 07:38:07;;;;;;;0.27;0.23;;;11.50;18.30;;;;;;4993565;28;20148;-62
2021/03/16 07:40:33;;;;;;;0.30;0.13;;;11.50;18.80;;;;;;4991898;28;20517;-62
2021/03/16 07:42:59;;;;;;;1.80;0.60;;;11.60;19.00;;;;;;5007092;28;20098;-62
2021/03/16 07:45:29;;;;;;;1.10;0.20;;;11.70;19.30;;;;;;5022401;28;20134;-63
2021/03/16 07:47:55;;;;;;;0.30;0.20;;;11.70;18.80;;;;;;5017791;28;20054;-64
2021/03/16 07:50:29;;;;;;;1.70;0.27;;;11.70;17.50;;;;;;5011901;28;20038;-64
2021/03/16 07:52:55;;;;;;;0.38;0.20;;;11.80;18.30;;;;;;4994081;28;20035;-64
2021/03/16 07:55:31;;;;;;;1.80;0.13;;;11.80;18.70;;;;;;4999725;28;20034;-64
2021/03/16 07:58:08;;;;;;;0.83;0.10;;;11.80;18.30;;;;;;4998188;28;20133;-64
2021/03/16 08:00:34;;;;;;;2.33;0.13;;;11.90;18.60;;;;;;5008792;28;20041;-63
2021/03/16 08:03:02;;;;;;;0.93;0.20;;;11.90;18.80;;;;;;5001161;28;20428;-63
2021/03/16 08:05:43;;;;;;;1.47;1.00;;;11.90;17.70;;;;;;5009079;28;20522;-63
2021/03/16 08:08:12;;;;;;;5.10;0.70;;;12.00;18.10;;;;;;4990114;28;20045;-63
2021/03/16 08:10:38;;;;;;;2.83;0.30;;;12.10;18.30;;;;;;4983479;28;20160;-62
2021/03/16 08:13:04;;;;;;;0.17;0.17;;;12.00;18.50;;;;;;4990883;28;20558;-65
2021/03/16 08:15:46;;;;;;;3.93;0.50;;;12.20;18.10;;;;;;4993798;28;20046;-63
2021/03/16 08:18:13;;;;;;;1.37;0.10;;;12.20;17.50;;;;;;4967611;28;20042;-63
2021/03/16 08:20:39;;;;;;;3.97;0.30;;;12.30;17.90;;;;;;4984403;28;20036;-62
2021/03/16 08:23:10;;;;;;;5.93;0.40;;;12.30;17.70;;;;;;4995404;28;20084;-64
2021/03/16 08:25:37;;;;;;;1.17;0.30;;;12.30;18.00;;;;;;4996708;28;20459;-63
2021/03/16 08:28:07;;;;;;;3.13;0.27;;;12.30;17.40;;;;;;4993036;28;20480;-64
2021/03/16 08:30:37;;;;;;;0.23;0.10;;;12.30;17.50;;;;;;5000040;28;20053;-64
2021/03/16 08:33:14;;;;;;;1.83;0.20;;;12.40;18.20;;;;;;4999940;28;20424;-63
2021/03/16 08:35:53;;;;;;;2.83;0.70;;;12.40;17.40;;;;;;4998635;28;20040;-63
2021/03/16 08:38:29;;;;;;;5.13;0.30;;;12.50;17.80;;;;;;4995219;28;20044;-64
2021/03/16 08:41:09;;;;;;;0.53;0.10;;;12.50;17.80;;;;;;5002567;28;20034;-63
2021/03/16 08:43:35;;;;;;;2.90;0.33;;;12.50;17.10;;;;;;4997056;28;20450;-64
2021/03/16 08:46:01;;;;;;;2.53;0.30;;;12.50;16.70;;;;;;5002520;28;20042;-63
2021/03/16 08:48:27;;;;;;;0.10;0.10;;;12.50;16.60;;;;;;4997478;28;20041;-64
2021/03/16 08:50:53;;;;;;;6.90;0.50;;;12.50;17.10;;;;;;4998080;28;20129;-63
2021/03/16 08:53:19;;;;;;;1.47;0.20;;;12.50;17.10;;;;;;5000797;28;20117;-64
2021/03/16 08:55:49;;;;;;;0.10;0.10;;;12.60;16.20;;;;;;5001719;28;20035;-64
2021/03/16 08:58:16;;;;;;;0.68;0.20;;;12.70;16.50;;;;;;5004969;28;20042;-64
2021/03/16 09:00:43;;;;;;;1.17;0.20;;;12.70;16.10;;;;;;4988030;28;20096;-63
2021/03/16 09:03:08;;;;;;;1.00;0.20;;;12.70;16.00;;;;;;4992069;28;20117;-62
2021/03/16 09:05:34;;;;;;;1.93;0.30;;;12.80;16.50;;;;;;4989562;28;20624;-64
2021/03/16 09:08:00;;;;;;;1.13;0.10;;;12.80;16.90;;;;;;4995810;28;20428;-64
2021/03/16 09:10:27;;;;;;;1.80;0.20;;;12.90;16.20;;;;;;4989151;28;20049;-63
2021/03/16 09:12:53;;;;;;;4.77;0.30;;;13.00;16.40;;;;;;4991562;28;20053;-63
2021/03/16 09:15:27;;;;;;;2.50;0.10;;;12.90;15.30;;;;;;4986362;28;20506;-65
2021/03/16 09:18:03;;;;;;;1.20;0.20;;;13.00;16.10;;;;;;4992330;28;20113;-64
2021/03/16 09:20:35;;;;;;;7.55;0.32;;;13.00;16.50;;;;;;4997913;28;20522;-63
2021/03/16 09:23:13;;;;;;;3.13;0.40;;;13.10;16.40;;;;;;5000301;28;20096;-64
2021/03/16 09:25:41;;;;;;;3.50;0.40;;;13.20;16.60;;;;;;4994504;28;20052;-63
2021/03/16 09:28:09;;;;;;;2.08;0.30;;;13.20;16.00;;;;;;4992156;28;20038;-64
2021/03/16 09:30:38;;;;;;;6.30;0.40;;;13.30;16.10;;;;;;4987760;28;20560;-64
2021/03/16 09:33:06;;;;;;;2.13;0.08;;;13.30;15.70;;;;;;5005241;28;20045;-64
2021/03/16 09:35:32;;;;;;;0.73;0.10;;;13.30;15.30;;;;;;5007669;28;20487;-64
2021/03/16 09:37:58;;;;;;;6.33;0.50;;;13.30;16.40;;;;;;5009603;28;20506;-64
2021/03/16 09:40:39;;;;;;;3.63;0.10;;;13.40;14.90;;;;;;5024311;28;20546;-64
2021/03/16 09:43:22;;;;;;;2.90;0.20;;;13.40;14.60;;;;;;5008697;28;20129;-64
2021/03/16 09:45:59;;;;;;;8.93;0.32;;;13.40;15.00;;;;;;4984653;28;20112;-64
2021/03/16 09:48:26;;;;;;;3.40;0.20;;;13.40;15.00;;;;;;5010268;28;20042;-64
2021/03/16 09:50:53;;;;;;;2.15;0.10;;;13.40;15.20;;;;;;5010611;28;20057;-64
2021/03/16 09:53:19;;;;;;;4.07;0.30;;;13.50;15.40;;;;;;5009936;28;20133;-64
2021/03/16 09:55:55;;;;;;;1.52;0.10;;;13.50;15.90;;;;;;5018327;28;20184;-63
2021/03/16 09:58:23;;;;;;;0.90;0.10;;;13.70;14.60;;;;;;4994961;28;20046;-64
2021/03/16 10:00:50;;;;;;;5.70;0.25;;;13.70;15.30;;;;;;4997074;28;20047;-64
2021/03/16 10:03:17;;;;;;;1.27;0.10;;;13.60;14.40;;;;;;4995345;28;20030;-64
2021/03/16 10:05:44;;;;;;;0.43;0.05;;;13.70;15.20;;;;;;4996237;28;20034;-63
2021/03/16 10:08:09;;;;;;;1.48;0.10;;;13.70;14.70;;;;;;4994032;28;20061;-64
2021/03/16 10:10:37;;;;;;;3.20;0.10;;;13.80;14.30;;;;;;4996729;28;20128;-64
2021/03/16 10:13:07;;;;;;;1.65;0.40;;;13.80;14.70;;;;;;4991016;28;20038;-63
2021/03/16 10:15:41;;;;;;;2.40;0.77;;;13.90;15.30;;;;;;5000552;28;20037;-63
2021/03/16 10:18:09;;;;;;;0.20;0.10;;;14.00;15.10;;;;;;4998694;28;20451;-64
2021/03/16 10:20:37;;;;;;;0.28;0.20;;;14.00;14.30;;;;;;4999179;28;20039;-64
2021/03/16 10:23:06;;;;;;;1.95;0.22;;;14.10;14.90;;;;;;5013017;28;20568;-64
2021/03/16 10:25:34;;;;;;;1.00;0.20;;;14.20;15.10;;;;;;5012638;28;20141;-64
2021/03/16 10:28:05;;;;;;;0.98;0.10;;;14.20;14.50;;;;;;5013256;28;20124;-64
2021/03/16 10:30:37;;;;;;;2.38;0.20;;;14.10;14.70;;;;;;5003009;28;20818;-63
2021/03/16 10:33:04;;;;;;;3.50;0.32;;;14.40;14.80;;;;;;4989186;28;20045;-64
2021/03/16 10:35:31;;;;;;;3.83;0.30;;;14.40;14.80;;;;;;5018579;28;20074;-64
2021/03/16 10:37:57;;;;;;;1.55;0.20;;;14.40;15.00;;;;;;5006245;28;20491;-64
2021/03/16 10:40:23;;;;;;;1.77;0.20;;;14.50;14.90;;;;;;5019226;28;20042;-64
2021/03/16 10:42:49;;;;;;;1.23;0.15;;;14.60;14.60;;;;;;5016689;28;20171;-63
2021/03/16 10:45:15;;;;;;;4.55;0.52;;;14.60;14.00;;;;;;5012808;28;20478;-63
2021/03/16 10:47:40;;;;;;;0.45;0.10;;;14.50;13.70;;;;;;5011391;28;20145;-63
2021/03/16 10:50:07;;;;;;;2.60;0.20;;;14.50;13.90;;;;;;5000661;28;20099;-63
2021/03/16 10:52:33;;;;;;;2.28;0.45;;;14.50;14.50;;;;;;5010422;28;20044;-63
2021/03/16 10:54:59;;;;;;;1.95;0.17;;;14.70;13.90;;;;;;5011384;28;20037;-63
2021/03/16 10:57:25;;;;;;;1.38;0.25;;;14.80;15.00;;;;;;5020474;28;20391;-63
2021/03/16 10:59:50;;;;;;;4.18;0.60;;;14.90;14.30;;;;;;5002905;28;20045;-66
2021/03/16 11:02:16;;;;;;;0.10;0.10;;;14.80;14.70;;;;;;4994213;28;20042;-67
2021/03/16 11:04:43;;;;;;;2.92;0.38;;;14.90;14.60;;;;;;4993409;28;20124;-74
2021/03/16 11:07:08;;;;;;;0.30;0.20;;;15.00;14.50;;;;;;4996438;28;20066;-61
2021/03/16 11:09:34;;;;;;;0.32;0.10;;;15.00;13.40;;;;;;4990038;28;20121;-68
2021/03/16 11:12:00;;;;;;;0.10;0.10;;;15.20;13.90;;;;;;4992779;28;20425;-68
2021/03/16 11:14:26;;;;;;;0.08;0.08;;;15.00;13.30;;;;;;4989421;28;20108;-70
2021/03/16 11:16:51;;;;;;;0.20;0.10;;;14.90;12.90;;;;;;4993684;28;20499;-70
2021/03/16 11:19:17;;;;;;;0.32;0.25;;;15.00;12.90;;;;;;4992261;28;20053;-69
2021/03/16 11:21:43;;;;;;;0.65;0.10;;;15.10;12.90;;;;;;4990618;28;21236;-66
2021/03/16 11:24:10;;;;;;;0.10;0.10;;;15.30;13.20;;;;;;4995922;28;20046;-69
2021/03/16 11:26:35;;;;;;;0.40;0.10;;;15.30;13.40;;;;;;4996783;28;20046;-72
2021/03/16 11:29:01;;;;;;;0.10;0.00;;;15.30;11.70;;;;;;4992859;28;20053;-62
2021/03/16 11:31:28;;;;;;;1.35;0.20;;;15.30;12.00;;;;;;4992368;28;20054;-62
2021/03/16 11:33:54;;;;;;;1.23;0.20;;;15.50;12.80;;;;;;4992573;28;20073;-62
2021/03/16 11:36:20;;;;;;;0.30;0.22;;;15.50;12.90;;;;;;4984700;28;20037;-61
2021/03/16 11:38:46;;;;;;;1.27;0.30;;;15.60;13.40;;;;;;5006632;28;20562;-62
2021/03/16 11:41:11;;;;;;;0.50;0.10;;;15.70;13.00;;;;;;4981961;28;20060;-61
2021/03/16 11:43:37;;;;;;;3.83;0.00;;;15.60;12.60;;;;;;4990440;28;20049;-61
2021/03/16 11:46:03;;;;;;;1.52;0.20;;;15.60;11.90;;;;;;4987987;28;20499;-61
2021/03/16 11:48:28;;;;;;;0.85;0.20;;;15.60;13.00;;;;;;4993627;28;20058;-61
2021/03/16 11:50:54;;;;;;;0.45;0.10;;;15.60;12.20;;;;;;4988470;28;20061;-61
2021/03/16 11:53:20;;;;;;;1.45;0.25;;;15.80;12.00;;;;;;4991616;28;20538;-61
2021/03/16 11:55:46;;;;;;;0.35;0.10;;;15.80;11.60;;;;;;4991380;28;20046;-61
2021/03/16 11:58:11;;;;;;;3.72;0.30;;;15.90;11.50;;;;;;4991480;28;20147;-60
2021/03/16 12:00:37;;;;;;;1.55;0.10;;;16.00;11.60;;;;;;4992403;28;20046;-61
2021/03/16 12:03:03;;;;;;;2.10;0.20;;;15.90;11.50;;;;;;4989341;28;21523;-61
2021/03/16 12:05:29;;;;;;;0.10;0.10;;;16.10;12.10;;;;;;4998520;28;20073;-61
2021/03/16 12:07:55;;;;;;;1.27;0.50;;;16.00;11.80;;;;;;4995976;28;20073;-61
2021/03/16 12:10:20;;;;;;;1.45;0.17;;;16.30;11.90;;;;;;4996150;28;20205;-61
2021/03/16 12:12:46;;;;;;;0.60;0.10;;;16.30;12.30;;;;;;4987633;28;20129;-61
2021/03/16 12:15:14;;;;;;;0.00;0.00;;;16.30;12.20;;;;;;4995913;28;20049;-61
2021/03/16 12:17:40;;;;;;;0.63;0.10;;;16.30;11.00;;;;;;4989543;28;20045;-62
2021/03/16 12:20:07;;;;;;;3.83;0.20;;;16.40;11.30;;;;;;4995743;28;20046;-61
2021/03/16 12:22:33;;;;;;;0.63;0.10;;;16.60;12.00;;;;;;4987577;28;21058;-61
2021/03/16 12:24:59;;;;;;;1.70;0.63;;;16.70;12.30;;;;;;4992317;28;20038;-61
2021/03/16 12:27:25;;;;;;;0.30;0.20;;;17.10;12.40;;;;;;4988023;28;20050;-61
2021/03/16 12:29:52;;;;;;;0.60;0.10;;;17.20;11.70;;;;;;4996914;28;20034;-60
2021/03/16 12:32:17;;;;;;;2.10;0.13;;;17.30;11.30;;;;;;4992710;28;20042;-60
2021/03/16 12:34:43;;;;;;;0.85;0.10;;;18.10;11.60;;;;;;5020495;28;20069;-60
2021/03/16 12:37:09;;;;;;;2.17;0.68;;;19.60;9.70;;;;;;5008946;28;20518;-61
2021/03/16 12:39:35;;;;;;;0.95;0.50;;;22.10;9.00;;;;;;4998425;28;20049;-61
2021/03/16 12:42:01;;;;;;;1.58;0.25;;;23.20;8.50;;;;;;5001194;28;20102;-60
2021/03/16 12:44:27;;;;;;;1.00;0.15;;;24.90;8.00;;;;;;5009045;28;20033;-61
2021/03/16 12:46:53;;;;;;;3.22;0.52;;;24.40;8.00;;;;;;4992592;28;20571;-60
2021/03/16 12:49:18;;;;;;;1.15;0.30;;;24.10;8.20;;;;;;5009908;28;20743;-61
2021/03/16 12:51:44;;;;;;;1.17;0.20;;;23.10;7.80;;;;;;4991275;28;20047;-61